Time;durP1;ratioP1;P1;durP2;ratioP2;P2;SDS_P1;SDS_P2;PMS_P1;PMS_P2;Temp;Humidity;BMP_temperature;BMP_pressure;BME280_temperature;BME280_humidity;BME280_pressure;Samples;Min_cycle;Max_cycle;Signal;HPM_P1;HPM_P2
2022/12/02 00:01:20;;;;;;;0.40;0.40;;;2.50;99.90;;;;;;5053251;28;20475;-91
2022/12/02 00:03:46;;;;;;;0.30;0.30;;;2.50;99.90;;;;;;5022270;28;20450;-88
2022/12/02 00:06:35;;;;;;;0.40;0.40;;;2.50;99.90;;;;;;5029737;28;20668;-90
2022/12/02 00:09:27;;;;;;;0.37;0.37;;;2.50;99.90;;;;;;5042154;28;20236;-90
2022/12/02 00:11:52;;;;;;;0.40;0.40;;;2.40;99.90;;;;;;5042459;28;20878;-89
2022/12/02 00:14:29;;;;;;;0.40;0.40;;;2.40;99.90;;;;;;5056094;28;20499;-89
2022/12/02 00:16:55;;;;;;;0.30;0.30;;;2.30;99.90;;;;;;5045628;28;20685;-89
2022/12/02 00:19:22;;;;;;;0.43;0.43;;;2.30;99.90;;;;;;5037937;28;21162;-89
2022/12/02 00:21:49;;;;;;;0.40;0.40;;;2.30;99.90;;;;;;5032862;28;20477;-89
2022/12/02 00:24:15;;;;;;;0.40;0.40;;;2.30;99.90;;;;;;5042530;28;20990;-89
2022/12/02 00:26:41;;;;;;;0.40;0.40;;;2.20;99.90;;;;;;5043017;28;20446;-89
2022/12/02 00:29:07;;;;;;;0.40;0.40;;;2.30;99.90;;;;;;5046425;28;20448;-88
2022/12/02 00:31:32;;;;;;;0.27;0.27;;;2.30;99.90;;;;;;5038174;28;20643;-88
2022/12/02 00:33:59;;;;;;;0.40;0.40;;;2.30;99.90;;;;;;5045387;28;20180;-88
2022/12/02 00:36:26;;;;;;;0.30;0.30;;;2.30;99.90;;;;;;5029937;28;20602;-88
2022/12/02 00:38:52;;;;;;;0.40;0.40;;;2.30;99.90;;;;;;5049760;28;20452;-87
2022/12/02 00:41:17;;;;;;;0.30;0.30;;;2.30;99.90;;;;;;5034143;28;20453;-87
2022/12/02 00:46:36;;;;;;;0.40;0.40;;;2.30;99.90;;;;;;4944802;28;20206;-87
2022/12/02 00:49:12;;;;;;;0.40;0.40;;;2.30;99.90;;;;;;4948347;28;20976;-87
2022/12/02 00:51:39;;;;;;;0.30;0.30;;;2.30;99.90;;;;;;4967861;28;20500;-87
2022/12/02 00:54:05;;;;;;;0.40;0.40;;;2.30;99.90;;;;;;4963291;28;20457;-88
2022/12/02 00:56:32;;;;;;;0.33;0.33;;;2.20;99.90;;;;;;4954358;28;20564;-87
2022/12/02 00:58:57;;;;;;;0.30;0.30;;;2.30;99.90;;;;;;4990334;28;20504;-87
2022/12/02 01:01:23;;;;;;;0.40;0.40;;;2.30;99.90;;;;;;4976456;28;20481;-88
2022/12/02 01:03:49;;;;;;;0.40;0.40;;;2.30;99.90;;;;;;4982925;28;20205;-88
2022/12/02 01:06:15;;;;;;;0.40;0.40;;;2.30;99.90;;;;;;4959049;28;20190;-88
2022/12/02 01:08:41;;;;;;;0.30;0.30;;;2.30;99.90;;;;;;5016777;28;20186;-87
2022/12/02 01:11:06;;;;;;;0.30;0.30;;;2.30;99.90;;;;;;4950404;28;20449;-88
2022/12/02 01:13:32;;;;;;;0.30;0.30;;;2.30;99.90;;;;;;4954151;28;20186;-89
2022/12/02 01:15:57;;;;;;;0.30;0.30;;;2.30;99.90;;;;;;5033414;28;20232;-87
2022/12/02 01:18:23;;;;;;;0.40;0.40;;;2.30;99.90;;;;;;4961098;28;20183;-87
2022/12/02 01:20:48;;;;;;;0.30;0.30;;;2.30;99.90;;;;;;4965227;28;20210;-87
2022/12/02 01:23:14;;;;;;;0.40;0.40;;;2.40;99.90;;;;;;4948904;28;20226;-88
2022/12/02 01:25:40;;;;;;;0.37;0.37;;;2.30;99.90;;;;;;5033244;28;20191;-88
2022/12/02 01:28:06;;;;;;;0.33;0.33;;;2.40;99.90;;;;;;4959031;28;20210;-87
2022/12/02 01:30:32;;;;;;;0.40;0.40;;;2.40;99.90;;;;;;5015059;28;20249;-88
2022/12/02 01:32:57;;;;;;;0.33;0.33;;;2.40;99.90;;;;;;4950193;28;20438;-87
2022/12/02 01:35:23;;;;;;;0.30;0.30;;;2.40;99.90;;;;;;4954586;28;20453;-88
2022/12/02 01:37:49;;;;;;;0.30;0.30;;;2.40;99.90;;;;;;5029375;28;20182;-88
2022/12/02 01:40:15;;;;;;;0.40;0.40;;;2.40;99.90;;;;;;4961409;28;20657;-88
2022/12/02 01:42:42;;;;;;;0.30;0.30;;;2.40;99.90;;;;;;4966678;28;21084;-88
2022/12/02 01:45:08;;;;;;;0.37;0.37;;;2.40;99.90;;;;;;4949526;28;20477;-87
2022/12/02 01:47:35;;;;;;;0.30;0.30;;;2.40;99.90;;;;;;4950982;28;20469;-88
2022/12/02 01:50:02;;;;;;;0.30;0.30;;;2.40;99.90;;;;;;4954245;28;21212;-88
2022/12/02 01:52:27;;;;;;;0.40;0.40;;;2.40;99.90;;;;;;4950135;29;20446;-87
2022/12/02 01:54:53;;;;;;;0.30;0.30;;;2.50;99.90;;;;;;4960886;28;20452;-87
2022/12/02 01:57:26;;;;;;;0.30;0.30;;;2.50;99.90;;;;;;4973724;28;20666;-88
2022/12/02 01:59:51;;;;;;;0.30;0.30;;;2.50;99.90;;;;;;4961588;28;20192;-89
2022/12/02 02:02:23;;;;;;;0.30;0.30;;;2.50;99.90;;;;;;4954586;28;20923;-88
2022/12/02 02:04:49;;;;;;;0.30;0.30;;;2.40;99.90;;;;;;4943826;28;20195;-89
2022/12/02 02:07:14;;;;;;;0.40;0.40;;;2.50;99.90;;;;;;4957365;28;20477;-88
2022/12/02 02:09:39;;;;;;;0.30;0.30;;;2.50;99.90;;;;;;4954148;28;20199;-88
2022/12/02 02:12:05;;;;;;;0.30;0.30;;;2.50;99.90;;;;;;4951396;28;20337;-88
2022/12/02 02:14:30;;;;;;;0.30;0.30;;;2.50;99.90;;;;;;4958127;28;20186;-89
2022/12/02 02:16:56;;;;;;;0.30;0.30;;;2.50;99.90;;;;;;5010471;28;20691;-88
2022/12/02 02:19:22;;;;;;;0.30;0.30;;;2.40;99.90;;;;;;5000210;28;20196;-87
2022/12/02 02:21:50;;;;;;;0.30;0.30;;;2.50;99.90;;;;;;4947819;28;20222;-88
2022/12/02 02:24:15;;;;;;;0.30;0.30;;;2.50;99.90;;;;;;5025636;28;20186;-88
2022/12/02 02:26:41;;;;;;;0.30;0.30;;;2.50;99.90;;;;;;4952854;28;20523;-89
2022/12/02 02:29:06;;;;;;;0.40;0.40;;;2.50;99.90;;;;;;4961934;28;20187;-89
2022/12/02 02:31:32;;;;;;;0.30;0.30;;;2.50;99.90;;;;;;4976688;28;20226;-89
2022/12/02 02:33:57;;;;;;;0.30;0.30;;;2.50;99.90;;;;;;4958842;28;20186;-89
2022/12/02 02:36:23;;;;;;;0.30;0.30;;;2.60;99.90;;;;;;4953914;28;20191;-88
2022/12/02 02:38:48;;;;;;;0.30;0.30;;;2.60;99.90;;;;;;4951062;28;20190;-89
2022/12/02 02:41:14;;;;;;;0.37;0.37;;;2.60;99.90;;;;;;4971383;28;20264;-89
2022/12/02 02:43:40;;;;;;;0.23;0.23;;;2.50;99.90;;;;;;5049287;28;20312;-89
2022/12/02 02:46:06;;;;;;;0.30;0.30;;;2.60;99.90;;;;;;5042534;28;20183;-88
2022/12/02 02:48:33;;;;;;;0.40;0.40;;;2.60;99.90;;;;;;5023846;28;20227;-89
2022/12/02 02:50:59;;;;;;;0.30;0.30;;;2.60;99.90;;;;;;5047684;28;20441;-88
2022/12/02 02:53:26;;;;;;;0.37;0.37;;;2.70;99.90;;;;;;5034062;28;20494;-89
2022/12/02 02:55:52;;;;;;;0.30;0.30;;;2.70;99.90;;;;;;5039939;28;20183;-87
2022/12/02 02:58:20;;;;;;;0.40;0.40;;;2.70;99.90;;;;;;5053114;28;20437;-89
2022/12/02 03:01:12;;;;;;;0.40;0.40;;;2.70;99.90;;;;;;5040030;28;20438;-89
2022/12/02 03:03:45;;;;;;;0.40;0.40;;;2.70;99.90;;;;;;5048720;28;20863;-89
2022/12/02 03:06:12;;;;;;;0.40;0.40;;;2.70;99.90;;;;;;5052041;28;20441;-90
2022/12/02 03:08:41;;;;;;;0.30;0.30;;;2.60;99.90;;;;;;5049561;28;20479;-88
2022/12/02 03:11:07;;;;;;;0.30;0.30;;;2.70;99.90;;;;;;5045522;28;20453;-89
2022/12/02 03:13:36;;;;;;;0.40;0.40;;;2.60;99.90;;;;;;5048256;28;20430;-89
2022/12/02 03:16:05;;;;;;;0.30;0.30;;;2.60;99.90;;;;;;5048265;28;20507;-89
2022/12/02 03:18:31;;;;;;;0.30;0.30;;;2.60;99.90;;;;;;5035009;28;20446;-89
2022/12/02 03:20:58;;;;;;;0.30;0.30;;;2.70;99.90;;;;;;5039756;28;20549;-90
2022/12/02 03:23:23;;;;;;;0.40;0.40;;;2.70;99.90;;;;;;5050715;28;20440;-89
2022/12/02 03:25:49;;;;;;;0.30;0.30;;;2.60;99.90;;;;;;5040231;28;20448;-90
2022/12/02 03:28:15;;;;;;;0.33;0.33;;;2.60;99.90;;;;;;5050087;28;20187;-90
2022/12/02 03:30:41;;;;;;;0.30;0.30;;;2.60;99.90;;;;;;5034100;28;20206;-90
2022/12/02 03:33:07;;;;;;;0.30;0.30;;;2.60;99.90;;;;;;5046794;28;20202;-90
2022/12/02 03:35:32;;;;;;;0.40;0.40;;;2.60;99.90;;;;;;5038013;28;20183;-88
2022/12/02 03:37:58;;;;;;;0.37;0.37;;;2.70;99.90;;;;;;5047923;28;20520;-90
2022/12/02 03:40:24;;;;;;;0.37;0.37;;;2.70;99.90;;;;;;5046733;28;20190;-89
2022/12/02 03:42:50;;;;;;;0.30;0.30;;;2.70;99.90;;;;;;5023077;28;20234;-90
2022/12/02 03:45:16;;;;;;;0.30;0.30;;;2.60;99.90;;;;;;5050399;28;20474;-90
2022/12/02 03:47:41;;;;;;;0.40;0.40;;;2.60;99.90;;;;;;5041977;28;21011;-90
2022/12/02 03:50:08;;;;;;;0.40;0.40;;;2.60;99.90;;;;;;5037668;28;20909;-87
2022/12/02 03:52:34;;;;;;;0.37;0.37;;;2.50;99.90;;;;;;5052020;28;20186;-87
2022/12/02 03:55:00;;;;;;;0.40;0.40;;;2.50;99.90;;;;;;5016357;28;20445;-89
2022/12/02 03:57:26;;;;;;;0.30;0.30;;;2.40;99.90;;;;;;5063338;28;20460;-89
2022/12/02 03:59:52;;;;;;;0.30;0.30;;;2.50;99.90;;;;;;5040204;28;20199;-90
2022/12/02 04:02:17;;;;;;;0.40;0.40;;;2.40;99.90;;;;;;5051263;28;20259;-89
2022/12/02 04:04:42;;;;;;;0.30;0.30;;;2.40;99.90;;;;;;5051445;28;20269;-89
2022/12/02 04:07:08;;;;;;;0.40;0.40;;;2.30;99.90;;;;;;5033873;28;20670;-88
2022/12/02 04:09:33;;;;;;;0.30;0.30;;;2.30;99.90;;;;;;5050775;28;20187;-88
2022/12/02 04:11:59;;;;;;;0.40;0.40;;;2.30;99.90;;;;;;4998790;28;20277;-88
2022/12/02 04:14:24;;;;;;;0.30;0.30;;;2.20;99.90;;;;;;4962633;28;20191;-88
2022/12/02 04:16:50;;;;;;;0.40;0.40;;;2.30;99.90;;;;;;4992401;28;20196;-88
2022/12/02 04:19:15;;;;;;;0.30;0.30;;;2.20;99.90;;;;;;5052379;28;20459;-89
2022/12/02 04:21:41;;;;;;;0.40;0.40;;;2.20;99.90;;;;;;5048474;28;20285;-88
2022/12/02 04:24:07;;;;;;;0.40;0.40;;;2.10;99.90;;;;;;5047253;28;20277;-87
2022/12/02 04:26:32;;;;;;;0.30;0.30;;;2.10;99.90;;;;;;5045468;28;20179;-87
2022/12/02 04:28:58;;;;;;;0.40;0.40;;;2.10;99.90;;;;;;5036318;28;20214;-88
2022/12/02 04:31:23;;;;;;;0.30;0.30;;;2.10;99.90;;;;;;5026197;28;20563;-87
2022/12/02 04:33:49;;;;;;;0.40;0.40;;;2.00;99.90;;;;;;5051849;28;20179;-90
2022/12/02 04:36:14;;;;;;;0.30;0.30;;;2.00;99.90;;;;;;5000303;28;20705;-87
2022/12/02 04:38:39;;;;;;;0.40;0.40;;;2.00;99.90;;;;;;5031819;28;20183;-87
2022/12/02 04:41:05;;;;;;;0.30;0.30;;;2.00;99.90;;;;;;5048406;28;20285;-84
2022/12/02 04:43:30;;;;;;;0.30;0.30;;;2.00;99.90;;;;;;5030972;28;20199;-88
2022/12/02 04:45:56;;;;;;;0.50;0.50;;;2.00;99.90;;;;;;5030444;28;20191;-88
2022/12/02 04:48:21;;;;;;;0.40;0.40;;;2.00;99.90;;;;;;5009333;28;20286;-88
2022/12/02 04:50:47;;;;;;;0.40;0.40;;;2.00;99.90;;;;;;5021279;28;20233;-88
2022/12/02 04:53:12;;;;;;;0.40;0.40;;;2.00;99.90;;;;;;5013598;28;20286;-88
2022/12/02 04:55:38;;;;;;;0.40;0.40;;;1.90;99.90;;;;;;5030044;28;20257;-88
2022/12/02 04:58:03;;;;;;;0.30;0.30;;;1.90;99.90;;;;;;5009855;28;20346;-87
2022/12/02 05:00:29;;;;;;;0.40;0.40;;;1.80;99.90;;;;;;5014105;28;20249;-88
2022/12/02 05:02:55;;;;;;;0.40;0.40;;;1.80;99.90;;;;;;5028620;28;20294;-88
2022/12/02 05:05:21;;;;;;;0.40;0.40;;;1.80;99.90;;;;;;5030812;28;20591;-87
2022/12/02 05:07:47;;;;;;;0.40;0.40;;;1.90;99.90;;;;;;5026941;28;20446;-87
2022/12/02 05:10:12;;;;;;;0.40;0.40;;;1.80;99.90;;;;;;5009068;28;20522;-88
2022/12/02 05:12:38;;;;;;;0.40;0.40;;;1.80;99.90;;;;;;5031997;28;20686;-88
2022/12/02 05:15:04;;;;;;;0.30;0.30;;;1.70;99.90;;;;;;5026016;28;20296;-88
2022/12/02 05:17:32;;;;;;;0.30;0.30;;;1.70;99.90;;;;;;5001334;28;20183;-88
2022/12/02 05:19:57;;;;;;;0.30;0.30;;;1.70;99.90;;;;;;5021116;28;20484;-88
2022/12/02 05:22:23;;;;;;;0.50;0.50;;;1.80;99.90;;;;;;5014873;28;20477;-88
2022/12/02 05:24:48;;;;;;;0.30;0.30;;;1.80;99.90;;;;;;5028981;28;20249;-87
2022/12/02 05:27:14;;;;;;;0.40;0.40;;;1.80;99.90;;;;;;5026918;28;20682;-85
2022/12/02 05:29:40;;;;;;;0.40;0.40;;;1.90;99.90;;;;;;5027284;28;20201;-88
2022/12/02 05:32:05;;;;;;;0.30;0.30;;;1.80;99.90;;;;;;5009918;28;20826;-88
2022/12/02 05:34:31;;;;;;;0.40;0.40;;;1.80;99.90;;;;;;5032505;28;20199;-87
2022/12/02 05:36:56;;;;;;;0.40;0.40;;;1.70;99.90;;;;;;5008074;28;20242;-86
2022/12/02 05:39:22;;;;;;;0.40;0.40;;;1.70;99.90;;;;;;5029657;28;20222;-85
2022/12/02 05:41:48;;;;;;;0.50;0.50;;;1.60;99.90;;;;;;5003913;28;20257;-86
2022/12/02 05:44:25;;;;;;;0.30;0.30;;;1.60;99.90;;;;;;4953368;28;20191;-86
2022/12/02 05:46:51;;;;;;;0.40;0.40;;;1.60;99.90;;;;;;4958875;28;20985;-86
2022/12/02 05:49:22;;;;;;;0.40;0.40;;;1.60;99.90;;;;;;4956655;28;20929;-86
2022/12/02 05:51:54;;;;;;;0.50;0.50;;;1.50;99.90;;;;;;4974886;28;20431;-87
2022/12/02 05:54:19;;;;;;;0.40;0.40;;;1.70;99.90;;;;;;5007612;28;20474;-86
2022/12/02 05:56:47;;;;;;;0.50;0.50;;;1.70;99.90;;;;;;4955506;28;20486;-87
2022/12/02 05:59:16;;;;;;;0.37;0.37;;;1.60;99.90;;;;;;4950150;29;20186;-86
2022/12/02 06:01:45;;;;;;;0.40;0.40;;;1.60;99.90;;;;;;4940027;28;20474;-86
2022/12/02 06:04:17;;;;;;;0.30;0.30;;;1.60;99.90;;;;;;4946697;28;20446;-87
2022/12/02 06:06:42;;;;;;;0.30;0.30;;;1.70;99.90;;;;;;4949775;28;20458;-86
2022/12/02 06:09:22;;;;;;;0.30;0.30;;;1.70;99.90;;;;;;4949594;28;20489;-86
2022/12/02 06:11:48;;;;;;;0.40;0.40;;;1.70;99.90;;;;;;4997048;28;20557;-87
2022/12/02 06:14:27;;;;;;;0.40;0.40;;;1.70;99.90;;;;;;5015846;28;20442;-89
2022/12/02 06:16:56;;;;;;;0.40;0.40;;;1.70;99.90;;;;;;4993059;28;20529;-89
2022/12/02 06:19:27;;;;;;;0.30;0.30;;;1.70;99.90;;;;;;5011889;28;20937;-89
2022/12/02 06:21:55;;;;;;;0.40;0.40;;;1.70;99.90;;;;;;4948126;28;20513;-89
2022/12/02 06:24:26;;;;;;;0.37;0.37;;;1.70;99.90;;;;;;4947470;28;20450;-87
2022/12/02 06:26:53;;;;;;;0.30;0.30;;;1.70;99.90;;;;;;4949352;28;20481;-86
2022/12/02 06:29:20;;;;;;;0.30;0.30;;;1.80;99.90;;;;;;4955641;28;20457;-86
2022/12/02 06:31:46;;;;;;;0.33;0.33;;;1.80;99.90;;;;;;4977628;28;20612;-94
2022/12/02 06:34:32;;;;;;;0.40;0.40;;;1.80;99.90;;;;;;5014843;28;20550;-91
2022/12/02 06:37:08;;;;;;;0.40;0.40;;;1.80;99.90;;;;;;4951308;29;20186;-92
2022/12/02 06:39:34;;;;;;;0.40;0.40;;;1.90;99.90;;;;;;4953580;28;20548;-93
2022/12/02 06:42:04;;;;;;;0.40;0.40;;;1.90;99.90;;;;;;4987020;28;20977;-91
2022/12/02 06:47:32;;;;;;;0.40;0.40;;;1.80;99.90;;;;;;5035519;28;20490;-88
2022/12/02 06:50:04;;;;;;;0.30;0.30;;;1.80;99.90;;;;;;5049432;28;20441;-87
2022/12/02 06:52:33;;;;;;;0.40;0.40;;;1.80;99.90;;;;;;5049704;28;20429;-89
2022/12/02 06:54:59;;;;;;;0.40;0.40;;;1.80;99.90;;;;;;5041077;28;20477;-89
2022/12/02 06:57:25;;;;;;;0.40;0.40;;;1.90;99.90;;;;;;5044251;28;21243;-89
2022/12/02 06:59:51;;;;;;;0.43;0.43;;;1.90;99.90;;;;;;5042652;28;20448;-88
2022/12/02 07:02:27;;;;;;;0.30;0.30;;;1.80;99.90;;;;;;5042956;28;20473;-90
2022/12/02 07:04:53;;;;;;;0.30;0.30;;;1.80;99.90;;;;;;5040979;28;20522;-90
2022/12/02 07:07:26;;;;;;;0.40;0.40;;;1.80;99.90;;;;;;5045188;28;20453;-89
2022/12/02 07:09:57;;;;;;;0.40;0.40;;;1.80;99.90;;;;;;5057231;28;21018;-89
2022/12/02 07:12:42;;;;;;;0.40;0.40;;;1.80;99.90;;;;;;5043268;28;20963;-89
2022/12/02 07:15:29;;;;;;;0.30;0.30;;;1.90;99.90;;;;;;5025337;28;20552;-87
2022/12/02 07:18:07;;;;;;;0.40;0.40;;;1.90;99.90;;;;;;5043430;28;20839;-88
2022/12/02 07:20:38;;;;;;;0.50;0.50;;;1.80;99.90;;;;;;5046487;28;20523;-88
2022/12/02 07:23:13;;;;;;;0.40;0.40;;;1.80;99.90;;;;;;5033966;28;20477;-89
2022/12/02 07:25:55;;;;;;;0.40;0.40;;;1.90;99.90;;;;;;5036554;28;20456;-89
2022/12/02 07:28:36;;;;;;;0.40;0.40;;;1.90;99.90;;;;;;5048889;28;20485;-89
2022/12/02 07:31:14;;;;;;;0.40;0.40;;;1.90;99.90;;;;;;5041332;28;20960;-89
2022/12/02 07:33:40;;;;;;;0.40;0.40;;;1.90;99.90;;;;;;5045823;28;20533;-92
2022/12/02 07:36:06;;;;;;;0.30;0.30;;;1.90;99.90;;;;;;5050864;28;21400;-92
2022/12/02 07:38:31;;;;;;;0.40;0.40;;;1.90;99.90;;;;;;5048365;28;20178;-94
2022/12/02 07:40:57;;;;;;;0.40;0.40;;;1.90;99.90;;;;;;5055270;28;20183;-93
2022/12/02 07:43:22;;;;;;;0.30;0.30;;;1.90;99.90;;;;;;5033164;28;20285;-90
2022/12/02 07:45:48;;;;;;;0.40;0.40;;;1.90;99.90;;;;;;5044462;28;20241;-89
2022/12/02 07:48:13;;;;;;;0.40;0.40;;;1.90;99.90;;;;;;5050238;28;20195;-89
2022/12/02 07:50:39;;;;;;;0.40;0.40;;;2.00;99.90;;;;;;5038920;28;20178;-91
2022/12/02 07:53:04;;;;;;;0.50;0.50;;;2.00;99.90;;;;;;5040048;28;20195;-91
2022/12/02 07:55:29;;;;;;;0.30;0.30;;;1.90;99.90;;;;;;5010803;28;20199;-92
2022/12/02 07:57:55;;;;;;;0.40;0.40;;;1.90;99.90;;;;;;5038662;28;20266;-92
2022/12/02 08:00:21;;;;;;;0.30;0.30;;;1.90;99.90;;;;;;5026749;28;20562;-91
2022/12/02 08:02:47;;;;;;;0.40;0.40;;;1.90;99.90;;;;;;5047753;28;20309;-91
2022/12/02 08:05:12;;;;;;;0.40;0.40;;;1.90;99.90;;;;;;5051487;28;20576;-91
2022/12/02 08:07:38;;;;;;;0.40;0.40;;;2.00;99.90;;;;;;5053712;28;20202;-90
2022/12/02 08:10:05;;;;;;;0.40;0.40;;;2.00;99.90;;;;;;5051074;28;20191;-91
2022/12/02 08:12:31;;;;;;;0.50;0.50;;;2.00;99.90;;;;;;5052687;28;20571;-90
2022/12/02 08:14:56;;;;;;;0.40;0.40;;;2.00;99.90;;;;;;5053050;28;20502;-91
2022/12/02 08:17:22;;;;;;;0.40;0.40;;;2.00;99.90;;;;;;5044223;28;20228;-90
2022/12/02 08:19:47;;;;;;;0.40;0.40;;;2.10;99.90;;;;;;5048115;28;20187;-90
2022/12/02 08:22:14;;;;;;;0.47;0.47;;;2.10;99.90;;;;;;5044560;28;20313;-90
2022/12/02 08:24:40;;;;;;;0.33;0.33;;;2.10;99.90;;;;;;5047701;28;20183;-90
2022/12/02 08:27:05;;;;;;;0.30;0.30;;;2.20;99.90;;;;;;5052897;28;21001;-90
2022/12/02 08:29:31;;;;;;;0.30;0.30;;;2.20;99.90;;;;;;5022279;28;20192;-90
2022/12/02 08:31:57;;;;;;;0.30;0.30;;;2.20;99.90;;;;;;5048347;28;20194;-90
2022/12/02 08:34:22;;;;;;;0.37;0.37;;;2.20;99.90;;;;;;5048057;28;20194;-89
2022/12/02 08:36:48;;;;;;;0.40;0.40;;;2.20;99.90;;;;;;5028075;28;20188;-89
2022/12/02 08:39:13;;;;;;;0.40;0.40;;;2.20;99.90;;;;;;5052168;28;20183;-90
2022/12/02 08:41:39;;;;;;;0.30;0.30;;;2.30;99.90;;;;;;5048271;28;20575;-90
2022/12/02 08:44:05;;;;;;;0.40;0.40;;;2.30;99.90;;;;;;5049582;28;20195;-89
2022/12/02 08:46:30;;;;;;;0.40;0.40;;;2.30;99.90;;;;;;5036759;28;20599;-89
2022/12/02 08:48:56;;;;;;;0.40;0.40;;;2.30;99.90;;;;;;5043341;28;20506;-91
2022/12/02 08:51:22;;;;;;;0.40;0.40;;;2.30;99.90;;;;;;5040462;28;21815;-92
2022/12/02 08:53:47;;;;;;;0.40;0.40;;;2.30;99.90;;;;;;5053733;28;20195;-91
2022/12/02 08:56:13;;;;;;;0.40;0.40;;;2.40;99.90;;;;;;5032743;28;20182;-87
2022/12/02 08:58:38;;;;;;;0.40;0.40;;;2.30;99.90;;;;;;5043905;28;20273;-89
2022/12/02 09:01:05;;;;;;;0.40;0.40;;;2.30;99.90;;;;;;5047589;28;20214;-91
2022/12/02 09:03:31;;;;;;;0.30;0.30;;;2.40;99.90;;;;;;5051414;28;20214;-91
2022/12/02 09:05:56;;;;;;;0.40;0.40;;;2.40;99.90;;;;;;5042885;28;20446;-90
2022/12/02 09:08:22;;;;;;;0.37;0.37;;;2.50;99.90;;;;;;5034074;28;20217;-90
2022/12/02 09:10:47;;;;;;;0.37;0.37;;;2.50;99.90;;;;;;5051936;28;20185;-91
2022/12/02 09:13:13;;;;;;;0.40;0.40;;;2.60;99.90;;;;;;5053415;28;20193;-90
2022/12/02 09:15:38;;;;;;;0.40;0.40;;;2.70;99.90;;;;;;5049375;28;20191;-90
2022/12/02 09:18:04;;;;;;;0.30;0.30;;;2.70;99.90;;;;;;5040128;28;20281;-90
2022/12/02 09:20:30;;;;;;;0.40;0.40;;;2.80;99.90;;;;;;5033534;28;20277;-91
2022/12/02 09:22:55;;;;;;;0.40;0.40;;;2.90;99.90;;;;;;5028478;28;20627;-91
2022/12/02 09:25:21;;;;;;;0.30;0.30;;;3.00;99.90;;;;;;5043368;28;20191;-91
2022/12/02 09:27:46;;;;;;;0.40;0.40;;;3.00;99.90;;;;;;5034548;28;20196;-91
2022/12/02 09:30:13;;;;;;;0.30;0.30;;;3.00;99.90;;;;;;5063221;28;20484;-91
2022/12/02 09:32:38;;;;;;;0.40;0.40;;;2.90;99.90;;;;;;5047994;28;20188;-90
2022/12/02 09:35:04;;;;;;;0.30;0.30;;;3.00;99.90;;;;;;5045057;28;20532;-88
2022/12/02 09:37:30;;;;;;;0.40;0.40;;;3.10;99.90;;;;;;5029242;28;20186;-89
2022/12/02 09:39:55;;;;;;;0.40;0.40;;;3.10;99.90;;;;;;5047579;28;20469;-90
2022/12/02 09:42:21;;;;;;;0.30;0.30;;;3.20;99.90;;;;;;5031992;28;20245;-89
2022/12/02 09:44:48;;;;;;;0.30;0.30;;;3.00;99.90;;;;;;5043766;28;20188;-88
2022/12/02 09:47:15;;;;;;;0.30;0.30;;;3.10;99.90;;;;;;5037908;28;20178;-90
2022/12/02 09:49:43;;;;;;;0.30;0.30;;;3.20;99.90;;;;;;5047112;28;20469;-89
2022/12/02 09:52:16;;;;;;;0.30;0.30;;;3.20;99.90;;;;;;5051391;28;20429;-89
2022/12/02 09:54:42;;;;;;;0.40;0.40;;;3.20;99.90;;;;;;5046311;28;20445;-90
2022/12/02 09:57:12;;;;;;;0.40;0.40;;;3.10;99.90;;;;;;5038677;28;20519;-89
2022/12/02 09:59:38;;;;;;;0.30;0.30;;;3.20;99.90;;;;;;5036469;28;20512;-89
2022/12/02 10:02:04;;;;;;;0.40;0.40;;;3.20;99.90;;;;;;5040176;28;20469;-89
2022/12/02 10:04:29;;;;;;;0.40;0.40;;;3.20;99.90;;;;;;5032243;28;20445;-90
2022/12/02 10:06:55;;;;;;;0.30;0.30;;;3.20;99.90;;;;;;5038776;28;20505;-89
2022/12/02 10:09:29;;;;;;;0.30;0.30;;;3.20;99.90;;;;;;5040468;28;20216;-90
2022/12/02 10:11:55;;;;;;;0.40;0.40;;;3.20;99.90;;;;;;5050321;28;20206;-89
2022/12/02 10:14:21;;;;;;;0.40;0.40;;;3.20;99.90;;;;;;5050519;28;20476;-90
2022/12/02 10:16:47;;;;;;;0.40;0.40;;;3.20;99.90;;;;;;5052134;28;20461;-91
2022/12/02 10:19:17;;;;;;;0.40;0.40;;;3.20;99.90;;;;;;5046547;28;20442;-90
2022/12/02 10:21:43;;;;;;;0.40;0.40;;;3.30;99.90;;;;;;5049917;28;20282;-89
2022/12/02 10:24:09;;;;;;;0.30;0.30;;;3.30;99.90;;;;;;5045873;28;20851;-89
2022/12/02 10:26:45;;;;;;;0.30;0.30;;;3.30;99.90;;;;;;5050514;28;20274;-90
2022/12/02 10:29:28;;;;;;;0.30;0.30;;;3.30;99.90;;;;;;5043661;28;20437;-89
2022/12/02 10:31:57;;;;;;;0.40;0.40;;;3.30;99.90;;;;;;5053157;28;20453;-90
2022/12/02 10:34:23;;;;;;;0.30;0.30;;;3.30;99.90;;;;;;5058243;28;20489;-89
2022/12/02 10:36:49;;;;;;;0.30;0.30;;;3.40;99.90;;;;;;5051608;28;20520;-90
2022/12/02 10:39:29;;;;;;;0.30;0.30;;;3.30;99.90;;;;;;5045325;28;20639;-89
2022/12/02 10:42:06;;;;;;;0.40;0.40;;;3.40;99.90;;;;;;5057013;28;20488;-88
2022/12/02 10:44:34;;;;;;;0.30;0.30;;;3.30;99.90;;;;;;5046204;28;21085;-89
2022/12/02 10:47:10;;;;;;;0.40;0.40;;;3.40;99.90;;;;;;5025941;28;20433;-89
2022/12/02 10:49:36;;;;;;;0.40;0.40;;;3.30;99.90;;;;;;5037586;28;20471;-90
2022/12/02 10:52:09;;;;;;;0.30;0.30;;;3.30;99.90;;;;;;5051490;28;20414;-87
2022/12/02 10:54:37;;;;;;;0.30;0.30;;;3.50;99.90;;;;;;5048552;28;20186;-90
2022/12/02 10:57:03;;;;;;;0.40;0.40;;;3.50;99.90;;;;;;5049487;28;20456;-90
2022/12/02 10:59:30;;;;;;;0.30;0.30;;;3.50;99.90;;;;;;5041889;28;20441;-90
2022/12/02 11:01:56;;;;;;;0.40;0.40;;;3.60;99.90;;;;;;5047969;28;20301;-91
2022/12/02 11:04:23;;;;;;;0.40;0.40;;;3.70;99.90;;;;;;5042273;28;20536;-91
2022/12/02 11:06:49;;;;;;;0.30;0.30;;;3.60;99.90;;;;;;5019512;28;20219;-91
2022/12/02 11:09:20;;;;;;;0.30;0.30;;;3.70;99.90;;;;;;5040685;28;20461;-91
2022/12/02 11:11:46;;;;;;;0.20;0.20;;;3.70;99.90;;;;;;5044198;28;20183;-91
2022/12/02 11:14:32;;;;;;;0.30;0.30;;;3.70;99.90;;;;;;5052410;28;20456;-92
2022/12/02 11:17:07;;;;;;;0.40;0.40;;;3.60;99.90;;;;;;5048536;28;20175;-89
2022/12/02 11:19:33;;;;;;;0.30;0.30;;;3.60;99.90;;;;;;5050309;28;20440;-87
2022/12/02 11:21:58;;;;;;;0.30;0.30;;;3.60;99.90;;;;;;5034919;28;20999;-89
2022/12/02 11:24:26;;;;;;;0.40;0.40;;;3.50;99.90;;;;;;5042859;28;20195;-92
2022/12/02 11:27:03;;;;;;;0.30;0.30;;;3.50;99.90;;;;;;5050208;28;20175;-92
2022/12/02 11:29:53;;;;;;;0.30;0.30;;;3.50;99.90;;;;;;5054609;28;20925;-92
2022/12/02 11:32:24;;;;;;;0.30;0.30;;;3.50;99.90;;;;;;5052518;28;20480;-91
2022/12/02 11:34:52;;;;;;;0.40;0.40;;;3.50;99.90;;;;;;5055156;28;20451;-85
2022/12/02 11:37:33;;;;;;;0.30;0.30;;;3.60;99.90;;;;;;5035844;28;20823;-85
2022/12/02 11:40:27;;;;;;;0.40;0.40;;;3.60;99.90;;;;;;5028786;28;20460;-84
2022/12/02 11:43:31;;;;;;;0.30;0.30;;;3.60;99.90;;;;;;5045574;28;21009;-85
2022/12/02 11:45:58;;;;;;;0.40;0.40;;;3.60;99.90;;;;;;5054675;28;20437;-88
2022/12/02 11:48:23;;;;;;;0.30;0.30;;;3.80;99.90;;;;;;5052300;28;20532;-86
2022/12/02 11:50:49;;;;;;;0.40;0.40;;;4.00;99.90;;;;;;5037550;28;20525;-87
2022/12/02 11:53:20;;;;;;;0.30;0.30;;;4.10;99.90;;;;;;5050917;28;20613;-86
2022/12/02 11:55:48;;;;;;;0.30;0.30;;;4.00;99.90;;;;;;5024739;28;20195;-85
2022/12/02 11:58:25;;;;;;;0.30;0.30;;;4.00;99.90;;;;;;5052660;28;20440;-85
2022/12/02 12:01:03;;;;;;;0.40;0.40;;;4.00;99.90;;;;;;5039595;28;20478;-85
2022/12/02 12:03:29;;;;;;;0.40;0.40;;;4.00;99.90;;;;;;5049676;28;21008;-86
2022/12/02 12:06:14;;;;;;;0.40;0.40;;;3.90;99.90;;;;;;5050273;28;20528;-85
2022/12/02 12:08:43;;;;;;;0.30;0.30;;;3.90;99.90;;;;;;5025918;28;20450;-84
2022/12/02 12:11:33;;;;;;;0.40;0.40;;;3.90;99.90;;;;;;5026021;28;20468;-85
2022/12/02 12:14:15;;;;;;;0.30;0.30;;;3.90;99.90;;;;;;5050490;28;20963;-84
2022/12/02 12:16:45;;;;;;;0.40;0.40;;;4.00;99.90;;;;;;5047568;28;20499;-85
2022/12/02 12:19:10;;;;;;;0.40;0.40;;;4.00;99.90;;;;;;5047912;28;20468;-84
2022/12/02 12:21:41;;;;;;;0.20;0.20;;;4.00;99.90;;;;;;5030504;28;20817;-85
2022/12/02 12:26:48;;;;;;;0.33;0.33;;;3.90;99.90;;;;;;5049706;28;20980;-84
2022/12/02 12:29:14;;;;;;;0.30;0.30;;;3.90;99.90;;;;;;5044862;28;20510;-85
2022/12/02 12:31:40;;;;;;;0.37;0.37;;;3.90;99.90;;;;;;5038133;28;20969;-84
2022/12/02 12:34:06;;;;;;;0.40;0.40;;;3.90;99.90;;;;;;5048971;28;20436;-86
2022/12/02 12:36:32;;;;;;;0.30;0.30;;;3.90;99.90;;;;;;5040376;28;20187;-86
2022/12/02 12:38:57;;;;;;;0.30;0.30;;;4.00;99.90;;;;;;5049815;28;20433;-86
2022/12/02 12:41:23;;;;;;;0.40;0.40;;;4.10;99.90;;;;;;5026619;28;20589;-84
2022/12/02 12:43:49;;;;;;;0.40;0.40;;;4.20;99.90;;;;;;5043398;28;20198;-87
2022/12/02 12:46:15;;;;;;;0.30;0.30;;;4.20;99.90;;;;;;5039289;28;20982;-85
2022/12/02 12:48:40;;;;;;;0.30;0.30;;;4.20;99.90;;;;;;5039060;28;20460;-85
2022/12/02 12:51:06;;;;;;;0.30;0.30;;;4.20;99.90;;;;;;5045122;28;20807;-86
2022/12/02 12:53:31;;;;;;;0.40;0.40;;;4.20;99.90;;;;;;5041994;28;20201;-79
2022/12/02 12:55:57;;;;;;;0.30;0.30;;;4.20;99.90;;;;;;5037973;28;20188;-81
2022/12/02 12:58:23;;;;;;;0.30;0.30;;;4.30;99.90;;;;;;5046267;28;20662;-83
2022/12/02 13:00:48;;;;;;;0.30;0.30;;;4.40;99.90;;;;;;5020678;28;20187;-84
2022/12/02 13:03:14;;;;;;;0.20;0.20;;;4.40;99.90;;;;;;5030241;28;21159;-82
2022/12/02 13:05:40;;;;;;;0.30;0.30;;;4.40;99.90;;;;;;5041520;28;20264;-81
2022/12/02 13:08:05;;;;;;;0.30;0.30;;;4.40;99.90;;;;;;5043483;28;20182;-85
2022/12/02 13:10:31;;;;;;;0.30;0.30;;;4.30;99.90;;;;;;5043251;28;20187;-82